Time;durP1;ratioP1;P1;durP2;ratioP2;P2;SDS_P1;SDS_P2;PMS_P1;PMS_P2;Temp;Humidity;BMP_temperature;BMP_pressure;BME280_temperature;BME280_humidity;BME280_pressure;Samples;Min_cycle;Max_cycle;Signal;HPM_P1;HPM_P2
2022/01/24 00:02:18;;;;;;;4.47;3.63;;;6.90;59.70;;;-142.21;100.00;112049.66;6275797;22;20196;-76
2022/01/24 00:04:49;;;;;;;4.30;3.63;;;6.80;59.80;;;-142.21;100.00;112049.66;6275793;22;20610;-74
2022/01/24 00:07:20;;;;;;;4.75;3.50;;;6.70;60.00;;;-142.21;100.00;112049.66;6276894;22;20494;-77
2022/01/24 00:09:48;;;;;;;4.35;3.78;;;6.70;60.50;;;-142.21;100.00;112049.66;6278680;22;20199;-75
2022/01/24 00:12:19;;;;;;;5.07;4.35;;;6.60;60.50;;;-142.21;100.00;112049.66;6278994;22;20643;-77
2022/01/24 00:14:57;;;;;;;4.30;3.90;;;6.60;60.80;;;-142.21;100.00;112049.66;6279234;22;20181;-77
2022/01/24 00:17:35;;;;;;;4.53;3.75;;;6.40;60.90;;;-142.21;100.00;112049.66;6279558;22;20529;-75
2022/01/24 00:28:21;;;;;;;4.22;3.60;;;6.40;61.00;;;-142.21;100.00;112049.66;6279115;22;20163;-74
2022/01/24 00:30:49;;;;;;;6.28;4.13;;;6.30;61.10;;;-142.21;100.00;112049.66;6279228;22;20173;-74
2022/01/24 00:33:18;;;;;;;4.63;3.97;;;6.40;61.40;;;-142.21;100.00;112049.66;6278528;22;20282;-75
2022/01/24 00:35:50;;;;;;;5.47;3.90;;;6.30;61.20;;;-142.21;100.00;112049.66;6278986;22;20262;-79
2022/01/24 00:38:17;;;;;;;4.40;3.97;;;6.20;61.90;;;-142.21;100.00;112049.66;6278059;22;20176;-79
2022/01/24 00:40:47;;;;;;;4.57;4.18;;;6.10;61.70;;;-142.21;100.00;112049.66;6278260;22;20231;-78
2022/01/24 00:43:24;;;;;;;4.15;3.47;;;6.00;61.90;;;-142.21;100.00;112049.66;6278035;22;20203;-75
2022/01/24 00:46:02;;;;;;;5.57;3.70;;;5.90;62.20;;;-142.21;100.00;112049.66;6278435;22;20165;-77
2022/01/24 00:48:54;;;;;;;5.60;3.63;;;5.90;62.50;;;-142.21;100.00;112049.66;6278333;22;20171;-80
2022/01/24 00:56:48;;;;;;;3.90;3.50;;;5.80;62.30;;;-142.21;100.00;112049.66;6277335;22;20176;-80
2022/01/24 00:59:15;;;;;;;4.25;3.85;;;5.80;62.50;;;-142.21;100.00;112049.66;6278344;22;20199;-79
2022/01/24 01:01:42;;;;;;;3.83;3.40;;;5.80;62.60;;;-142.21;100.00;112049.66;6278558;22;20246;-78
2022/01/24 01:04:09;;;;;;;4.03;3.30;;;5.80;62.70;;;-142.21;100.00;112049.66;6278587;22;20597;-77
2022/01/24 01:06:42;;;;;;;4.10;3.55;;;5.80;62.40;;;-142.21;100.00;112049.66;6277859;22;20176;-78
2022/01/24 01:20:08;;;;;;;4.65;3.65;;;5.70;62.70;;;-142.21;100.00;112049.66;6276855;22;20180;-77
2022/01/24 01:22:37;;;;;;;5.13;4.60;;;5.60;63.00;;;-142.21;100.00;112049.66;6276792;22;20196;-75
2022/01/24 01:25:05;;;;;;;5.03;4.53;;;5.60;62.60;;;-142.21;100.00;112049.66;6276829;22;20176;-74
2022/01/24 01:27:38;;;;;;;4.45;3.90;;;5.60;63.00;;;-142.21;100.00;112049.66;6276627;22;20176;-75
2022/01/24 01:30:14;;;;;;;5.32;4.50;;;5.60;62.90;;;-142.21;100.00;112049.66;6277370;22;20161;-75
2022/01/24 01:32:55;;;;;;;5.10;4.60;;;5.60;63.20;;;-142.21;100.00;112049.66;6276449;22;20161;-74
2022/01/24 01:35:41;;;;;;;5.90;4.88;;;5.60;63.00;;;-142.21;100.00;112049.66;6277543;22;20206;-74
2022/01/24 01:38:33;;;;;;;6.53;5.15;;;5.60;63.20;;;-142.21;100.00;112049.66;6277508;22;20593;-75
2022/01/24 01:55:09;;;;;;;8.60;6.68;;;5.70;64.70;;;-142.21;100.00;112049.66;6252482;22;20172;-74
2022/01/24 01:57:39;;;;;;;7.32;6.10;;;5.70;64.70;;;-142.21;100.00;112049.66;6277146;22;20516;-75
2022/01/24 02:00:10;;;;;;;6.85;6.13;;;5.70;65.00;;;-142.21;100.00;112049.66;6276059;22;20248;-74
2022/01/24 02:02:37;;;;;;;6.65;5.75;;;5.70;64.80;;;-142.21;100.00;112049.66;6276318;22;20335;-76
2022/01/24 02:05:07;;;;;;;7.63;6.22;;;5.80;64.50;;;-142.21;100.00;112049.66;6275892;22;20184;-74
2022/01/24 02:07:34;;;;;;;9.10;6.47;;;5.80;64.70;;;-142.21;100.00;112049.66;6277072;22;20172;-76
2022/01/24 02:10:03;;;;;;;7.78;6.78;;;5.80;64.60;;;-142.21;100.00;112049.66;6276324;22;20188;-78
2022/01/24 02:12:33;;;;;;;8.50;6.43;;;5.70;64.60;;;-142.21;100.00;112049.66;6276535;22;20172;-75
2022/01/24 02:15:01;;;;;;;7.13;6.43;;;5.60;64.50;;;-142.21;100.00;112049.66;6276478;22;20238;-79
2022/01/24 02:17:38;;;;;;;7.32;5.85;;;5.70;64.50;;;-142.21;100.00;112049.66;6276706;22;20500;-77
2022/01/24 02:20:27;;;;;;;6.78;5.88;;;5.70;64.50;;;-142.21;100.00;112049.66;6276007;22;20157;-77
2022/01/24 02:23:18;;;;;;;8.95;6.57;;;5.70;64.80;;;-142.21;100.00;112049.66;6276750;22;20185;-78
2022/01/24 02:25:45;;;;;;;7.65;6.22;;;5.70;64.70;;;-142.21;100.00;112049.66;6276760;22;20163;-75
2022/01/24 02:28:15;;;;;;;7.82;5.90;;;5.70;64.50;;;-142.21;100.00;112049.66;6275883;22;20173;-74
2022/01/24 02:31:05;;;;;;;5.85;5.25;;;5.70;64.50;;;-142.21;100.00;112049.66;6275776;22;20172;-75
2022/01/24 02:33:32;;;;;;;7.07;6.28;;;5.60;64.80;;;-142.21;100.00;112049.66;6275686;22;20179;-73
2022/01/24 02:36:00;;;;;;;6.85;5.97;;;5.70;64.70;;;-142.21;100.00;112049.66;6276260;22;20219;-73
2022/01/24 02:38:40;;;;;;;8.55;6.18;;;5.70;64.50;;;-142.21;100.00;112049.66;6275645;22;20230;-75
2022/01/24 02:49:37;;;;;;;6.25;5.65;;;5.60;65.00;;;-142.21;100.00;112049.66;6275395;22;20210;-77
2022/01/24 02:52:07;;;;;;;7.60;5.82;;;5.60;64.80;;;-142.21;100.00;112049.66;6276653;22;20188;-74
2022/01/24 02:54:37;;;;;;;7.15;6.28;;;5.60;64.60;;;-142.21;100.00;112049.66;6275810;22;20196;-75
2022/01/24 02:57:08;;;;;;;7.18;6.15;;;5.60;64.70;;;-142.21;100.00;112049.66;6276348;22;20978;-75
2022/01/24 02:59:37;;;;;;;8.70;7.32;;;5.50;64.80;;;-142.21;100.00;112049.66;6275236;22;20204;-75
2022/01/24 03:02:05;;;;;;;6.97;6.20;;;5.50;64.80;;;-142.21;100.00;112049.66;6276179;22;20193;-75
2022/01/24 03:04:32;;;;;;;6.68;6.03;;;5.40;64.70;;;-142.21;100.00;112049.66;6275523;22;20173;-74
2022/01/24 03:07:00;;;;;;;8.02;6.28;;;5.40;64.60;;;-142.21;100.00;112049.66;6276212;22;20272;-75
2022/01/24 03:09:27;;;;;;;7.40;6.47;;;5.40;64.70;;;-142.21;100.00;112049.66;6276351;22;20255;-75
2022/01/24 03:12:06;;;;;;;7.80;7.00;;;5.40;64.60;;;-142.21;100.00;112049.66;6275792;22;20210;-74
2022/01/24 03:14:36;;;;;;;8.88;7.00;;;5.30;64.60;;;-142.21;100.00;112049.66;6276477;22;20191;-75
2022/01/24 03:17:06;;;;;;;7.20;6.10;;;5.30;64.60;;;-142.21;100.00;112049.66;6276790;22;20176;-75
2022/01/24 03:19:34;;;;;;;8.18;6.90;;;5.20;64.50;;;-142.21;100.00;112049.66;6276724;22;20230;-74
2022/01/24 03:22:02;;;;;;;8.00;6.90;;;5.20;64.40;;;-142.21;100.00;112049.66;6276821;22;20193;-75
2022/01/24 03:24:30;;;;;;;7.95;7.15;;;5.20;64.70;;;-142.21;100.00;112049.66;6277430;22;20469;-74
2022/01/24 03:26:58;;;;;;;9.98;7.95;;;5.20;64.60;;;-142.21;100.00;112049.66;6276641;22;20181;-75
2022/01/24 03:29:26;;;;;;;7.88;6.93;;;5.10;64.70;;;-142.21;100.00;112049.66;6277034;22;20184;-75
2022/01/24 03:31:53;;;;;;;8.80;7.32;;;5.30;65.10;;;-142.21;100.00;112049.66;6277107;22;20176;-75
2022/01/24 03:34:20;;;;;;;8.23;7.43;;;5.10;64.90;;;-142.21;100.00;112049.66;6276989;22;20546;-72
2022/01/24 03:36:47;;;;;;;11.00;8.45;;;5.10;64.90;;;-142.21;100.00;112049.66;6276719;22;20252;-75
2022/01/24 03:39:15;;;;;;;10.00;8.98;;;5.10;65.00;;;-142.21;100.00;112049.66;6276252;22;20207;-74
2022/01/24 03:41:42;;;;;;;10.00;8.48;;;5.00;64.70;;;-142.21;100.00;112049.66;6275942;22;20193;-77
2022/01/24 03:44:14;;;;;;;9.75;8.05;;;5.00;64.70;;;-142.21;100.00;112049.66;6275753;22;20173;-77
2022/01/24 03:46:59;;;;;;;10.30;8.13;;;4.90;64.80;;;-142.21;100.00;112049.66;6276221;22;20208;-74
2022/01/24 03:52:12;;;;;;;9.02;7.90;;;4.90;66.20;;;-142.21;100.00;112049.66;6276285;22;20528;-75
2022/01/24 03:54:43;;;;;;;9.82;8.70;;;4.90;65.50;;;-142.21;100.00;112049.66;6276197;22;20176;-75
2022/01/24 03:57:11;;;;;;;10.05;8.15;;;4.80;65.50;;;-142.21;100.00;112049.66;6275551;22;20171;-74
2022/01/24 03:59:41;;;;;;;9.02;8.13;;;4.80;65.70;;;-142.21;100.00;112049.66;6276195;22;20181;-75
2022/01/24 04:02:09;;;;;;;10.27;7.88;;;4.70;65.50;;;-142.21;100.00;112049.66;6276161;22;20192;-79
2022/01/24 04:04:37;;;;;;;10.80;8.80;;;4.70;65.50;;;-142.21;100.00;112049.66;6275534;22;20173;-79
2022/01/24 04:07:05;;;;;;;10.27;8.45;;;4.60;66.30;;;-142.21;100.00;112049.66;6275766;22;20547;-79
2022/01/24 04:09:33;;;;;;;8.82;7.70;;;4.60;66.10;;;-142.21;100.00;112049.66;6248640;22;20242;-76
2022/01/24 04:12:01;;;;;;;9.23;8.32;;;4.70;66.00;;;-142.21;100.00;112049.66;6275699;22;20188;-77
2022/01/24 04:14:36;;;;;;;9.95;8.57;;;4.80;66.00;;;-142.21;100.00;112049.66;6275852;22;20176;-78
2022/01/24 04:17:20;;;;;;;10.93;8.85;;;4.80;66.00;;;-142.21;100.00;112049.66;6278007;22;20235;-78
2022/01/24 04:22:46;;;;;;;8.55;7.63;;;4.70;65.70;;;-142.21;100.00;112049.66;6293778;22;20644;-81
2022/01/24 04:25:15;;;;;;;9.48;8.35;;;4.70;65.80;;;-142.21;100.00;112049.66;6275903;22;20546;-80
2022/01/24 04:27:42;;;;;;;12.02;9.23;;;4.70;65.70;;;-142.21;100.00;112049.66;6274815;22;20168;-81
2022/01/24 04:30:12;;;;;;;10.40;9.15;;;4.60;65.40;;;-142.21;100.00;112049.66;6275705;22;20180;-80
2022/01/24 04:32:40;;;;;;;10.15;8.85;;;4.60;66.10;;;-142.21;100.00;112049.66;6275101;22;20208;-78
2022/01/24 04:35:08;;;;;;;9.40;8.43;;;4.60;66.20;;;-142.21;100.00;112049.66;6275426;22;20211;-77
2022/01/24 04:37:36;;;;;;;10.82;8.88;;;4.60;66.10;;;-142.21;100.00;112049.66;6275299;22;20192;-79
2022/01/24 04:40:05;;;;;;;10.82;8.98;;;4.60;66.00;;;-142.21;100.00;112049.66;6275578;22;20475;-80
2022/01/24 04:42:40;;;;;;;10.75;9.35;;;4.60;66.50;;;-142.21;100.00;112049.66;6275649;22;20197;-80
2022/01/24 04:45:26;;;;;;;10.52;8.20;;;4.60;66.50;;;-142.21;100.00;112049.66;6275462;22;20256;-81
2022/01/24 04:50:59;;;;;;;9.38;8.38;;;4.60;65.60;;;-142.21;100.00;112049.66;6275681;22;20270;-80
2022/01/24 04:56:16;;;;;;;9.50;8.00;;;4.50;65.20;;;-142.21;100.00;112049.66;6246334;22;20180;-78
2022/01/24 04:58:43;;;;;;;10.15;9.05;;;4.50;65.60;;;-142.21;100.00;112049.66;6277914;22;20176;-79
2022/01/24 05:01:14;;;;;;;11.02;8.63;;;4.50;66.00;;;-142.21;100.00;112049.66;6277514;22;20210;-80
2022/01/24 05:03:42;;;;;;;11.05;8.77;;;4.40;66.10;;;-142.21;100.00;112049.66;6277131;22;20573;-80
2022/01/24 05:06:09;;;;;;;10.27;8.68;;;4.40;66.10;;;-142.21;100.00;112049.66;6276658;22;20176;-79
2022/01/24 05:08:37;;;;;;;9.48;7.38;;;4.40;66.10;;;-142.21;100.00;112049.66;6277628;22;20176;-79
2022/01/24 05:11:08;;;;;;;8.38;7.22;;;4.40;66.30;;;-142.21;100.00;112049.66;6276485;22;20172;-79
2022/01/24 05:24:37;;;;;;;10.52;9.20;;;4.30;66.20;;;-142.21;100.00;112049.66;6275429;22;20172;-76
2022/01/24 05:27:06;;;;;;;8.98;7.97;;;4.30;66.30;;;-142.21;100.00;112049.66;6276751;22;20586;-75
2022/01/24 05:29:33;;;;;;;9.73;7.72;;;4.30;66.40;;;-142.21;100.00;112049.66;6277381;22;20230;-76
2022/01/24 05:32:00;;;;;;;11.30;8.30;;;4.30;66.50;;;-142.21;100.00;112049.66;6276857;22;20255;-75
2022/01/24 05:34:29;;;;;;;10.05;7.88;;;4.30;66.40;;;-142.21;100.00;112049.66;6276924;22;20638;-76
2022/01/24 05:36:56;;;;;;;9.95;8.88;;;4.30;66.60;;;-142.21;100.00;112049.66;6277121;22;20244;-79
2022/01/24 05:39:24;;;;;;;10.10;8.50;;;4.30;66.70;;;-142.21;100.00;112049.66;6275160;22;20196;-76
2022/01/24 05:41:51;;;;;;;9.82;8.63;;;4.40;66.70;;;-142.21;100.00;112049.66;6276859;22;20216;-79
2022/01/24 05:44:18;;;;;;;9.40;8.35;;;4.40;66.70;;;-142.21;100.00;112049.66;6276607;22;20258;-79
2022/01/24 05:46:46;;;;;;;10.35;8.73;;;4.30;66.70;;;-142.21;100.00;112049.66;6276926;22;20200;-78
2022/01/24 05:49:13;;;;;;;9.00;7.80;;;4.30;66.70;;;-142.21;100.00;112049.66;6276749;22;20230;-78
2022/01/24 05:51:41;;;;;;;8.57;7.68;;;4.30;66.80;;;-142.21;100.00;112049.66;6276297;22;20250;-79
2022/01/24 05:54:11;;;;;;;10.43;8.77;;;4.30;66.60;;;-142.21;100.00;112049.66;6276571;22;20181;-76
2022/01/24 05:56:38;;;;;;;9.88;8.55;;;4.30;66.60;;;-142.21;100.00;112049.66;6276903;22;20198;-75
2022/01/24 05:59:06;;;;;;;10.50;8.68;;;4.20;66.40;;;-142.21;100.00;112049.66;6277339;22;20223;-75
2022/01/24 06:01:33;;;;;;;11.25;9.50;;;4.20;66.50;;;-142.21;100.00;112049.66;6276894;22;20223;-75
2022/01/24 06:04:01;;;;;;;11.48;9.40;;;4.10;66.70;;;-142.21;100.00;112049.66;6277542;22;20247;-73
2022/01/24 06:06:28;;;;;;;12.60;9.60;;;4.00;66.80;;;-142.21;100.00;112049.66;6276598;22;20250;-76
2022/01/24 06:08:57;;;;;;;11.38;9.45;;;4.10;67.00;;;-142.21;100.00;112049.66;6277645;22;20181;-75
2022/01/24 06:11:24;;;;;;;10.05;8.98;;;4.10;67.00;;;-142.21;100.00;112049.66;6277114;22;20238;-77
2022/01/24 06:13:52;;;;;;;10.15;9.05;;;4.20;67.30;;;-142.21;100.00;112049.66;6275939;22;21025;-78
2022/01/24 06:16:19;;;;;;;10.10;8.45;;;4.10;67.10;;;-142.21;100.00;112049.66;6276506;22;20539;-77
2022/01/24 06:18:47;;;;;;;9.00;8.07;;;4.10;67.10;;;-142.21;100.00;112049.66;6276366;22;20207;-76
2022/01/24 06:21:14;;;;;;;10.55;8.90;;;4.20;67.20;;;-142.21;100.00;112049.66;6276432;22;20180;-75
2022/01/24 06:23:41;;;;;;;10.75;8.68;;;4.20;66.80;;;-142.21;100.00;112049.66;6276494;22;20223;-74
2022/01/24 06:26:10;;;;;;;9.50;8.50;;;4.10;66.90;;;-142.21;100.00;112049.66;6276788;22;20493;-74
2022/01/24 06:28:38;;;;;;;11.18;8.85;;;4.10;67.10;;;-142.21;100.00;112049.66;6276984;22;20181;-74
2022/01/24 06:31:05;;;;;;;10.65;8.73;;;4.00;67.30;;;-142.21;100.00;112049.66;6275899;22;20614;-74
2022/01/24 06:33:32;;;;;;;10.88;8.27;;;4.10;67.20;;;-142.21;100.00;112049.66;6276562;22;20172;-74
2022/01/24 06:36:01;;;;;;;9.48;8.20;;;4.10;67.30;;;-142.21;100.00;112049.66;6276579;22;20271;-75
2022/01/24 06:38:28;;;;;;;11.40;8.75;;;4.10;67.20;;;-142.21;100.00;112049.66;6276294;22;20176;-75
2022/01/24 06:41:06;;;;;;;10.57;9.30;;;3.90;66.40;;;-142.21;100.00;112049.66;6277831;22;20532;-77
2022/01/24 06:43:35;;;;;;;11.68;8.73;;;4.00;66.80;;;-142.21;100.00;112049.66;6278747;22;20193;-78
2022/01/24 06:46:03;;;;;;;10.35;9.13;;;4.10;67.10;;;-142.21;100.00;112049.66;6277820;22;20177;-78
2022/01/24 06:48:30;;;;;;;10.40;8.52;;;3.90;66.80;;;-142.21;100.00;112049.66;6278814;22;20168;-78
2022/01/24 06:50:57;;;;;;;10.18;8.50;;;3.90;67.10;;;-142.21;100.00;112049.66;6278782;22;20196;-77
2022/01/24 06:53:25;;;;;;;9.73;8.73;;;3.90;67.10;;;-142.21;100.00;112049.66;6277972;22;20274;-78
2022/01/24 06:55:52;;;;;;;10.43;7.88;;;4.00;67.10;;;-142.21;100.00;112049.66;6277818;22;20227;-76
2022/01/24 06:58:20;;;;;;;10.77;9.13;;;3.90;66.50;;;-142.21;100.00;112049.66;6276690;22;20177;-75
2022/01/24 07:00:48;;;;;;;12.35;9.32;;;3.90;66.50;;;-142.21;100.00;112049.66;6276725;22;20176;-75
2022/01/24 07:03:18;;;;;;;11.40;8.40;;;3.90;66.60;;;-142.21;100.00;112049.66;6276820;22;20193;-75
2022/01/24 07:05:45;;;;;;;10.32;9.15;;;3.90;66.60;;;-142.21;100.00;112049.66;6276978;22;20242;-77
2022/01/24 07:08:12;;;;;;;10.85;8.98;;;3.90;66.80;;;-142.21;100.00;112049.66;6277391;22;20222;-77
2022/01/24 07:10:40;;;;;;;10.48;8.82;;;3.70;67.00;;;-142.21;100.00;112049.66;6277394;22;20172;-76
2022/01/24 07:13:07;;;;;;;9.07;8.02;;;3.60;67.40;;;-142.21;100.00;112049.66;6276791;22;20176;-75
2022/01/24 07:15:40;;;;;;;11.18;8.55;;;3.70;67.70;;;-142.21;100.00;112049.66;6277558;22;20218;-76
2022/01/24 07:18:57;;;;;;;8.63;7.70;;;3.70;67.40;;;-142.21;100.00;112049.66;6277880;22;20192;-75
2022/01/24 07:21:08;;;;;;;11.40;8.63;;;3.80;67.00;;;-142.21;100.00;112049.66;6276238;22;20625;-75
2022/01/24 07:23:35;;;;;;;11.52;8.77;;;3.90;67.10;;;-142.21;100.00;112049.66;6275960;22;20640;-80
2022/01/24 07:26:07;;;;;;;9.57;8.55;;;3.90;66.90;;;-142.21;100.00;112049.66;6276899;22;20180;-80
2022/01/24 07:28:34;;;;;;;9.60;7.97;;;3.90;67.00;;;-142.21;100.00;112049.66;6276927;22;20176;-78
2022/01/24 07:31:02;;;;;;;8.18;7.22;;;3.90;67.00;;;-142.21;100.00;112049.66;6278176;22;20177;-78
2022/01/24 07:33:31;;;;;;;9.48;7.97;;;4.10;67.10;;;-142.21;100.00;112049.66;6278297;22;20173;-80
2022/01/24 07:35:59;;;;;;;10.70;8.43;;;4.00;67.30;;;-142.21;100.00;112049.66;6275827;22;20234;-75
2022/01/24 07:38:27;;;;;;;9.88;8.63;;;4.00;67.20;;;-142.21;100.00;112049.66;6275820;22;20181;-78
2022/01/24 07:41:01;;;;;;;12.93;10.10;;;4.00;67.30;;;-142.21;100.00;112049.66;6275960;22;20168;-76
2022/01/24 07:43:34;;;;;;;9.77;8.63;;;4.00;67.30;;;-142.21;100.00;112049.66;6275380;22;20217;-74
2022/01/24 07:46:01;;;;;;;12.63;8.65;;;4.20;67.30;;;-142.21;100.00;112049.66;6276058;22;20181;-75
2022/01/24 07:48:30;;;;;;;10.52;8.77;;;4.40;66.90;;;-142.21;100.00;112049.66;6275695;22;20180;-78
2022/01/24 07:50:58;;;;;;;9.80;8.38;;;5.10;66.10;;;-142.21;100.00;112049.66;6275947;22;20207;-78
2022/01/24 07:53:25;;;;;;;12.75;8.35;;;5.60;64.00;;;-142.21;100.00;112049.66;6275704;22;20226;-78
2022/01/24 07:55:54;;;;;;;11.35;8.18;;;6.30;62.10;;;-142.21;100.00;112049.66;6275912;22;20200;-81
2022/01/24 07:58:21;;;;;;;10.45;8.40;;;6.10;61.80;;;-142.21;100.00;112049.66;6275572;22;20173;-81
2022/01/24 08:00:49;;;;;;;12.80;9.45;;;5.80;62.20;;;-142.21;100.00;112049.66;6275021;22;20179;-75
2022/01/24 08:03:17;;;;;;;9.85;8.75;;;5.60;63.30;;;-142.21;100.00;112049.66;6275254;22;20243;-80
2022/01/24 08:05:46;;;;;;;9.63;8.63;;;5.60;64.30;;;-142.21;100.00;112049.66;6274986;22;20173;-76
2022/01/24 08:08:13;;;;;;;9.25;8.23;;;5.50;64.80;;;-142.21;100.00;112049.66;6275294;22;20223;-81
2022/01/24 08:10:41;;;;;;;10.45;8.32;;;5.40;65.20;;;-142.21;100.00;112049.66;6274312;22;20199;-80
2022/01/24 08:13:08;;;;;;;11.15;9.40;;;5.40;65.80;;;-142.21;100.00;112049.66;6275755;22;20180;-81
2022/01/24 08:15:36;;;;;;;11.40;9.23;;;5.40;66.50;;;-142.21;100.00;112049.66;6275411;22;20184;-79
2022/01/24 08:18:04;;;;;;;11.05;8.93;;;5.50;66.40;;;-142.21;100.00;112049.66;6275191;22;20172;-80
2022/01/24 08:20:32;;;;;;;10.50;9.00;;;5.50;66.30;;;-142.21;100.00;112049.66;6274608;22;20683;-80
2022/01/24 08:23:01;;;;;;;9.98;8.27;;;5.90;65.90;;;-142.21;100.00;112049.66;6274016;22;20201;-81
2022/01/24 08:25:28;;;;;;;9.55;8.55;;;6.00;65.80;;;-142.21;100.00;112049.66;6275229;22;20543;-78
2022/01/24 08:27:56;;;;;;;10.30;8.68;;;6.10;65.50;;;-142.21;100.00;112049.66;6275370;22;20169;-79
2022/01/24 08:30:25;;;;;;;9.40;8.40;;;6.20;65.70;;;-142.21;100.00;112049.66;6277281;22;20181;-80
2022/01/24 08:32:52;;;;;;;9.53;7.43;;;7.00;65.40;;;-142.21;100.00;112049.66;6276643;22;20395;-77
2022/01/24 08:35:22;;;;;;;9.03;7.10;;;9.20;60.00;;;-142.21;100.00;112049.66;6277316;22;20441;-79
2022/01/24 08:37:50;;;;;;;8.23;7.43;;;9.80;58.00;;;-142.21;100.00;112049.66;6276249;22;20407;-74
2022/01/24 08:40:24;;;;;;;9.50;8.10;;;11.70;54.80;;;-142.21;100.00;112049.66;6276965;22;20418;-77
2022/01/24 08:42:58;;;;;;;8.77;7.73;;;13.20;51.60;;;-142.21;100.00;112049.66;6276374;22;20438;-75
2022/01/24 08:45:50;;;;;;;8.77;7.87;;;12.80;50.40;;;-142.21;100.00;112049.66;6277307;22;20441;-75
2022/01/24 08:48:22;;;;;;;8.90;8.00;;;12.20;51.10;;;-142.21;100.00;112049.66;6276109;22;20462;-74
2022/01/24 08:50:53;;;;;;;8.37;7.50;;;11.80;52.30;;;-142.21;100.00;112049.66;6276832;22;20496;-75
2022/01/24 08:53:20;;;;;;;7.57;6.70;;;11.50;52.60;;;-142.21;100.00;112049.66;6278157;22;20395;-75
2022/01/24 08:55:49;;;;;;;8.20;7.40;;;11.90;52.10;;;-142.21;100.00;112049.66;6277919;22;20399;-75
2022/01/24 08:58:16;;;;;;;8.70;7.70;;;12.30;51.70;;;-142.21;100.00;112049.66;6279941;22;20403;-77
2022/01/24 09:00:46;;;;;;;9.20;8.30;;;12.10;52.40;;;-142.21;100.00;112049.66;6304636;22;20383;-76
2022/01/24 09:03:14;;;;;;;10.03;8.73;;;11.60;52.60;;;-142.21;100.00;112049.66;6298598;22;20418;-76
2022/01/24 09:05:42;;;;;;;9.70;8.70;;;11.80;53.00;;;-142.21;100.00;112049.66;6279501;22;20406;-75
2022/01/24 09:08:11;;;;;;;9.40;8.37;;;12.20;52.40;;;-142.21;100.00;112049.66;6276746;22;20426;-75
2022/01/24 09:10:43;;;;;;;9.83;8.83;;;13.30;51.30;;;-142.21;100.00;112049.66;6277124;22;20399;-76
2022/01/24 09:13:13;;;;;;;9.77;8.80;;;13.80;49.10;;;-142.21;100.00;112049.66;6276396;22;20407;-76
2022/01/24 09:15:41;;;;;;;9.23;8.33;;;12.70;48.90;;;-142.21;100.00;112049.66;6276848;22;21073;-75
2022/01/24 09:18:09;;;;;;;9.07;8.17;;;12.00;51.70;;;-142.21;100.00;112049.66;6276673;22;20411;-75
2022/01/24 09:20:39;;;;;;;8.50;7.60;;;11.80;50.80;;;-142.21;100.00;112049.66;6276259;22;20462;-75
2022/01/24 09:23:07;;;;;;;8.03;7.23;;;11.60;52.40;;;-142.21;100.00;112049.66;6276459;22;20443;-76
2022/01/24 09:25:34;;;;;;;8.37;7.43;;;11.80;52.90;;;-142.21;100.00;112049.66;6275966;22;20403;-78
2022/01/24 09:28:01;;;;;;;8.33;7.43;;;11.80;51.00;;;-142.21;100.00;112049.66;6276706;22;20414;-75
2022/01/24 09:30:30;;;;;;;12.47;8.10;;;11.40;52.30;;;-142.21;98.76;112049.66;6275930;22;20391;-75
2022/01/24 09:32:58;;;;;;;8.43;7.57;;;11.40;52.00;;;-142.21;98.69;112049.66;6277139;22;20406;-76
2022/01/24 09:35:33;;;;;;;8.73;7.80;;;11.50;52.50;;;-142.21;97.48;112049.66;6276165;22;20693;-78
2022/01/24 09:38:00;;;;;;;8.47;7.60;;;11.30;52.80;;;-142.21;94.86;112049.66;6276972;22;20472;-77
2022/01/24 09:40:28;;;;;;;8.57;7.73;;;12.20;52.00;;;-142.21;92.45;112049.66;6275321;22;20431;-78
2022/01/24 09:42:55;;;;;;;8.23;7.43;;;13.30;49.90;;;-142.21;88.83;112049.66;6276484;22;21072;-75
2022/01/24 09:45:22;;;;;;;7.87;7.17;;;13.30;48.90;;;-142.21;89.89;112049.66;6275769;22;20517;-76
2022/01/24 09:47:53;;;;;;;8.07;7.27;;;13.00;49.50;;;-142.21;83.01;112049.66;6276371;22;20434;-75
2022/01/24 09:50:22;;;;;;;7.73;7.00;;;14.00;49.30;;;-142.21;78.01;112049.66;6275860;22;20935;-75
2022/01/24 09:52:52;;;;;;;7.37;6.67;;;13.40;48.20;;;-142.21;72.00;112049.66;6276609;22;20737;-74
2022/01/24 09:55:23;;;;;;;6.80;6.20;;;13.80;49.50;;;-142.21;66.37;112049.66;6249977;22;20498;-76
2022/01/24 09:57:53;;;;;;;7.00;6.30;;;14.20;48.60;;;-142.21;61.51;112049.66;6277054;22;20391;-75
2022/01/24 10:00:23;;;;;;;7.03;6.37;;;14.90;47.00;;;-142.21;57.68;112049.66;6276264;22;20414;-75
2022/01/24 10:02:53;;;;;;;6.80;6.20;;;15.20;45.50;;;-142.21;59.16;112049.66;6276464;22;20447;-75
2022/01/24 10:05:23;;;;;;;6.63;6.03;;;16.00;44.60;;;-142.21;57.14;112049.66;6276209;22;20447;-75
2022/01/24 10:07:55;;;;;;;7.20;5.70;;;16.00;43.30;;;-142.21;56.27;112049.66;6275797;22;20411;-75
2022/01/24 10:10:35;;;;;;;6.50;5.90;;;17.20;43.20;;;-142.21;53.20;112049.66;6276679;22;20442;-77
2022/01/24 10:16:29;;;;;;;6.43;5.90;;;18.30;40.00;;;-142.21;53.26;112049.66;6277619;22;20383;-76
2022/01/24 10:19:11;;;;;;;6.53;5.80;;;19.30;39.30;;;-142.21;49.18;112049.66;6276182;22;20430;-76
2022/01/24 10:21:42;;;;;;;7.03;6.43;;;20.00;37.60;;;-142.21;46.23;112049.66;6275955;22;20192;-75
2022/01/24 10:24:12;;;;;;;6.93;6.33;;;19.20;37.70;;;-142.21;44.73;112049.66;6276677;22;20181;-75
2022/01/24 10:26:40;;;;;;;6.60;6.00;;;19.20;38.80;;;-142.21;43.52;112049.66;6275961;22;20177;-77
2022/01/24 10:29:12;;;;;;;6.27;5.67;;;20.40;37.30;;;-142.21;41.72;112049.66;6276146;22;20192;-77
2022/01/24 10:31:49;;;;;;;7.83;7.13;;;21.50;35.70;;;-142.21;39.91;112049.66;6276503;22;20185;-76
2022/01/24 10:34:25;;;;;;;6.97;6.30;;;22.10;33.20;;;-142.21;38.57;112049.66;6276171;22;20233;-76
2022/01/24 10:36:55;;;;;;;6.77;6.17;;;22.70;34.40;;;-142.21;37.09;112049.66;6275675;22;20161;-75
2022/01/24 10:39:31;;;;;;;6.53;5.77;;;23.20;33.10;;;-142.21;35.89;112049.66;6276659;22;20229;-77
2022/01/24 10:45:20;;;;;;;7.03;6.43;;;23.70;30.00;;;-142.21;34.91;112049.66;6275835;22;20649;-76
2022/01/24 10:47:52;;;;;;;5.63;5.10;;;24.30;31.40;;;-142.21;34.06;112049.66;6275214;22;20220;-77
2022/01/24 10:50:28;;;;;;;6.80;6.10;;;24.70;31.30;;;-142.21;33.62;112049.66;6275900;22;20199;-77
2022/01/24 10:52:58;;;;;;;6.50;5.90;;;24.70;29.70;;;-142.21;33.75;112049.66;6276032;22;20474;-78
2022/01/24 10:55:28;;;;;;;6.93;6.33;;;24.60;30.00;;;-142.21;34.17;112049.66;6275781;22;20177;-78
2022/01/24 10:58:05;;;;;;;7.13;6.53;;;24.70;29.80;;;-142.21;33.45;112049.66;6275456;22;20161;-75
2022/01/24 11:00:35;;;;;;;6.30;5.80;;;24.40;29.30;;;-142.21;34.57;112049.66;6276086;22;20189;-74
2022/01/24 11:03:03;;;;;;;7.20;6.60;;;24.60;29.20;;;-142.21;35.11;112049.66;6249191;22;20207;-76
2022/01/24 11:05:39;;;;;;;6.53;6.03;;;23.80;29.80;;;-142.21;34.61;112049.66;6275849;22;20177;-76
2022/01/24 11:08:10;;;;;;;7.87;7.13;;;24.40;29.50;;;-142.21;36.48;112049.66;6275294;22;20230;-78
2022/01/24 11:10:41;;;;;;;7.40;6.80;;;23.80;29.80;;;-142.21;37.03;112049.66;6275597;22;20230;-75
2022/01/24 11:13:09;;;;;;;7.63;6.97;;;22.60;29.40;;;-142.21;36.02;112049.66;6275044;22;20165;-75
2022/01/24 11:15:48;;;;;;;7.67;7.00;;;22.70;31.70;;;-142.21;36.48;112049.66;6275920;22;20246;-76
2022/01/24 11:18:16;;;;;;;7.10;6.50;;;22.30;30.50;;;-142.21;35.96;112049.66;6275161;22;20157;-75
2022/01/24 11:21:01;;;;;;;7.60;6.83;;;22.60;32.50;;;-142.21;35.42;112049.66;6274761;22;20172;-76
2022/01/24 11:23:30;;;;;;;7.00;6.37;;;23.40;30.40;;;-142.21;35.92;112049.66;6275176;22;20184;-76
2022/01/24 11:25:58;;;;;;;7.03;6.33;;;23.20;29.40;;;-142.21;37.52;112049.66;6275787;22;20176;-74
2022/01/24 11:28:26;;;;;;;6.60;6.10;;;22.90;31.10;;;-142.21;38.35;112049.66;6275461;22;20172;-75